sensor_id;sensor_type;location;lat;lon;timestamp;pressure;altitude;pressure_sealevel;temperature;humidity
31096;BME280;17749;51.962;8.560;2023-04-03T05:01:23;101569.63;;;-0.43;100.00
31096;BME280;17749;51.962;8.560;2023-04-03T05:03:58;101570.50;;;-0.42;100.00
31096;BME280;17749;51.962;8.560;2023-04-03T05:06:25;101577.44;;;-0.45;100.00
31096;BME280;17749;51.962;8.560;2023-04-03T05:08:54;101584.44;;;-0.43;100.00
31096;BME280;17749;51.962;8.560;2023-04-03T05:11:22;101589.69;;;-0.43;100.00
31096;BME280;17749;51.962;8.560;2023-04-03T05:13:52;101590.53;;;-0.45;100.00
31096;BME280;17749;51.962;8.560;2023-04-03T05:16:21;101593.94;;;-0.47;100.00
31096;BME280;17749;51.962;8.560;2023-04-03T05:18:48;101598.28;;;-0.48;100.00
31096;BME280;17749;51.962;8.560;2023-04-03T05:21:18;101596.50;;;-0.49;100.00
31096;BME280;17749;51.962;8.560;2023-04-03T05:23:47;101603.50;;;-0.48;100.00
31096;BME280;17749;51.962;8.560;2023-04-03T05:26:14;101602.59;;;-0.50;100.00
31096;BME280;17749;51.962;8.560;2023-04-03T05:28:42;101599.97;;;-0.50;100.00
31096;BME280;17749;51.962;8.560;2023-04-03T05:31:11;101604.41;;;-0.47;100.00
31096;BME280;17749;51.962;8.560;2023-04-03T05:33:38;101601.75;;;-0.49;100.00
31096;BME280;17749;51.962;8.560;2023-04-03T05:36:08;101602.63;;;-0.48;100.00
31096;BME280;17749;51.962;8.560;2023-04-03T05:38:42;101610.44;;;-0.50;100.00
31096;BME280;17749;51.962;8.560;2023-04-03T05:41:09;101617.53;;;-0.46;100.00
31096;BME280;17749;51.962;8.560;2023-04-03T05:43:36;101615.00;;;-0.42;100.00
31096;BME280;17749;51.962;8.560;2023-04-03T05:46:16;101614.19;;;-0.41;100.00
31096;BME280;17749;51.962;8.560;2023-04-03T05:48:48;101625.56;;;-0.39;100.00
31096;BME280;17749;51.962;8.560;2023-04-03T05:51:38;101622.13;;;-0.38;100.00
31096;BME280;17749;51.962;8.560;2023-04-03T05:54:28;101617.69;;;-0.39;100.00
31096;BME280;17749;51.962;8.560;2023-04-03T05:57:03;101628.16;;;-0.39;100.00
31096;BME280;17749;51.962;8.560;2023-04-03T05:59:29;101635.19;;;-0.38;100.00
31096;BME280;17749;51.962;8.560;2023-04-03T06:01:58;101634.44;;;-0.34;100.00
31096;BME280;17749;51.962;8.560;2023-04-03T06:04:25;101635.44;;;-0.29;100.00
31096;BME280;17749;51.962;8.560;2023-04-03T06:06:55;101635.56;;;-0.26;100.00
31096;BME280;17749;51.962;8.560;2023-04-03T06:09:27;101642.50;;;-0.27;100.00
31096;BME280;17749;51.962;8.560;2023-04-03T06:11:55;101643.44;;;-0.25;100.00
31096;BME280;17749;51.962;8.560;2023-04-03T06:14:23;101640.88;;;-0.23;100.00
31096;BME280;17749;51.962;8.560;2023-04-03T06:16:50;101651.44;;;-0.20;100.00
31096;BME280;17749;51.962;8.560;2023-04-03T06:19:18;101653.41;;;-0.13;100.00
31096;BME280;17749;51.962;8.560;2023-04-03T06:21:49;101648.03;;;-0.16;100.00
31096;BME280;17749;51.962;8.560;2023-04-03T06:24:17;101659.47;;;-0.14;100.00
31096;BME280;17749;51.962;8.560;2023-04-03T06:26:44;101657.84;;;-0.09;100.00
31096;BME280;17749;51.962;8.560;2023-04-03T06:29:12;101657.13;;;-0.05;100.00
31096;BME280;17749;51.962;8.560;2023-04-03T06:31:39;101659.97;;;0.05;100.00
31096;BME280;17749;51.962;8.560;2023-04-03T06:34:06;101666.31;;;0.13;100.00
31096;BME280;17749;51.962;8.560;2023-04-03T06:36:35;101659.66;;;0.24;100.00
31096;BME280;17749;51.962;8.560;2023-04-03T06:39:02;101665.13;;;0.33;100.00
31096;BME280;17749;51.962;8.560;2023-04-03T06:41:30;101664.56;;;0.45;100.00
31096;BME280;17749;51.962;8.560;2023-04-03T06:43:57;101668.34;;;0.56;100.00
31096;BME280;17749;51.962;8.560;2023-04-03T06:46:26;101650.31;;;0.70;100.00
31096;BME280;17749;51.962;8.560;2023-04-03T06:48:53;101659.44;;;0.84;100.00
31096;BME280;17749;51.962;8.560;2023-04-03T06:51:26;101661.66;;;1.04;100.00
31096;BME280;17749;51.962;8.560;2023-04-03T06:53:55;101668.88;;;1.14;100.00
31096;BME280;17749;51.962;8.560;2023-04-03T06:56:22;101670.06;;;1.27;100.00
31096;BME280;17749;51.962;8.560;2023-04-03T06:58:49;101669.44;;;1.39;100.00
31096;BME280;17749;51.962;8.560;2023-04-03T07:01:18;101675.09;;;1.57;100.00
31096;BME280;17749;51.962;8.560;2023-04-03T07:03:48;101678.97;;;1.74;100.00
31096;BME280;17749;51.962;8.560;2023-04-03T07:06:16;101676.78;;;1.96;100.00
31096;BME280;17749;51.962;8.560;2023-04-03T07:08:44;101680.53;;;2.07;100.00
31096;BME280;17749;51.962;8.560;2023-04-03T07:11:12;101689.44;;;2.15;100.00
31096;BME280;17749;51.962;8.560;2023-04-03T07:13:39;101696.88;;;2.36;100.00
31096;BME280;17749;51.962;8.560;2023-04-03T07:16:07;101709.50;;;2.56;100.00
31096;BME280;17749;51.962;8.560;2023-04-03T07:18:34;101705.44;;;2.73;100.00
31096;BME280;17749;51.962;8.560;2023-04-03T07:21:03;101714.28;;;2.80;100.00
31096;BME280;17749;51.962;8.560;2023-04-03T07:23:30;101719.94;;;3.01;100.00
31096;BME280;17749;51.962;8.560;2023-04-03T07:25:57;101712.47;;;3.27;100.00
31096;BME280;17749;51.962;8.560;2023-04-03T07:28:24;101715.34;;;3.44;100.00
31096;BME280;17749;51.962;8.560;2023-04-03T07:31:03;101713.66;;;3.49;100.00
31096;BME280;17749;51.962;8.560;2023-04-03T07:33:32;101721.59;;;3.53;100.00
31096;BME280;17749;51.962;8.560;2023-04-03T07:35:59;101722.63;;;3.62;100.00
31096;BME280;17749;51.962;8.560;2023-04-03T07:38:27;101720.13;;;3.71;100.00
31096;BME280;17749;51.962;8.560;2023-04-03T07:40:54;101728.22;;;3.85;100.00
31096;BME280;17749;51.962;8.560;2023-04-03T07:43:22;101730.19;;;4.02;100.00
31096;BME280;17749;51.962;8.560;2023-04-03T07:45:49;101725.16;;;4.20;100.00
31096;BME280;17749;51.962;8.560;2023-04-03T07:48:19;101719.94;;;4.26;100.00
31096;BME280;17749;51.962;8.560;2023-04-03T07:50:46;101724.44;;;4.35;100.00
31096;BME280;17749;51.962;8.560;2023-04-03T07:53:13;101729.00;;;4.53;100.00
31096;BME280;17749;51.962;8.560;2023-04-03T07:55:40;101722.28;;;4.79;100.00
31096;BME280;17749;51.962;8.560;2023-04-03T07:58:10;101724.97;;;4.89;100.00
31096;BME280;17749;51.962;8.560;2023-04-03T08:00:38;101727.66;;;4.93;100.00
31096;BME280;17749;51.962;8.560;2023-04-03T08:03:06;101739.88;;;4.83;99.76
31096;BME280;17749;51.962;8.560;2023-04-03T08:05:38;101732.78;;;4.76;100.00
31096;BME280;17749;51.962;8.560;2023-04-03T08:08:06;101731.94;;;4.82;100.00
31096;BME280;17749;51.962;8.560;2023-04-03T08:10:34;101732.94;;;4.90;100.00
31096;BME280;17749;51.962;8.560;2023-04-03T08:13:02;101728.53;;;4.92;100.00
31096;BME280;17749;51.962;8.560;2023-04-03T08:15:30;101728.53;;;4.92;100.00
31096;BME280;17749;51.962;8.560;2023-04-03T08:17:58;101735.66;;;5.02;100.00
31096;BME280;17749;51.962;8.560;2023-04-03T08:20:25;101735.69;;;5.07;100.00
31096;BME280;17749;51.962;8.560;2023-04-03T08:22:53;101732.84;;;4.82;100.00
31096;BME280;17749;51.962;8.560;2023-04-03T08:25:20;101738.81;;;4.66;100.00
31096;BME280;17749;51.962;8.560;2023-04-03T08:27:47;101740.50;;;4.56;100.00
31096;BME280;17749;51.962;8.560;2023-04-03T08:30:14;101738.84;;;4.68;100.00
31096;BME280;17749;51.962;8.560;2023-04-03T08:32:41;101737.28;;;4.85;100.00
31096;BME280;17749;51.962;8.560;2023-04-03T08:35:10;101749.50;;;4.75;100.00
31096;BME280;17749;51.962;8.560;2023-04-03T08:37:38;101739.91;;;4.87;100.00
31096;BME280;17749;51.962;8.560;2023-04-03T08:40:07;101744.25;;;4.81;100.00
31096;BME280;17749;51.962;8.560;2023-04-03T08:45:16;101746.75;;;4.66;100.00
31096;BME280;17749;51.962;8.560;2023-04-03T08:48:12;101745.16;;;4.83;100.00
31096;BME280;17749;51.962;8.560;2023-04-03T08:50:43;101742.59;;;4.88;100.00
31096;BME280;17749;51.962;8.560;2023-04-03T08:53:15;101747.03;;;4.94;100.00
31096;BME280;17749;51.962;8.560;2023-04-03T08:55:46;101734.72;;;4.96;100.00
31096;BME280;17749;51.962;8.560;2023-04-03T08:58:30;101737.38;;;4.97;100.00
31096;BME280;17749;51.962;8.560;2023-04-03T09:03:47;101734.72;;;4.96;100.00
31096;BME280;17749;51.962;8.560;2023-04-03T09:06:19;101745.94;;;4.73;96.13
31096;BME280;17749;51.962;8.560;2023-04-03T09:12:03;101729.34;;;4.83;100.00
31096;BME280;17749;51.962;8.560;2023-04-03T09:22:59;101733.16;;;5.19;99.12
31096;BME280;17749;51.962;8.560;2023-04-03T09:25:32;101736.72;;;5.21;97.15
31096;BME280;17749;51.962;8.560;2023-04-03T09:28:01;101730.47;;;5.13;94.36
31096;BME280;17749;51.962;8.560;2023-04-03T09:30:29;101726.91;;;5.07;91.63
31096;BME280;17749;51.962;8.560;2023-04-03T09:32:57;101730.50;;;5.16;93.71
31096;BME280;17749;51.962;8.560;2023-04-03T09:35:35;101722.75;;;5.41;92.87
31096;BME280;17749;51.962;8.560;2023-04-03T09:38:17;101721.97;;;5.54;91.96
31096;BME280;17749;51.962;8.560;2023-04-03T09:40:48;101732.56;;;5.56;88.46
31096;BME280;17749;51.962;8.560;2023-04-03T09:43:25;101717.47;;;5.38;86.83
31096;BME280;17749;51.962;8.560;2023-04-03T09:45:53;101711.31;;;5.40;85.94
31096;BME280;17749;51.962;8.560;2023-04-03T09:48:24;101717.63;;;5.65;89.40
31096;BME280;17749;51.962;8.560;2023-04-03T09:53:42;101712.56;;;6.02;92.29
31096;BME280;17749;51.962;8.560;2023-04-03T09:58:45;101718.78;;;6.15;87.79
31096;BME280;17749;51.962;8.560;2023-04-03T10:01:27;101719.72;;;6.34;86.68
31096;BME280;17749;51.962;8.560;2023-04-03T10:06:45;101712.72;;;6.57;86.30
31096;BME280;17749;51.962;8.560;2023-04-03T10:14:29;101720.72;;;6.76;85.38
31096;BME280;17749;51.962;8.560;2023-04-03T10:16:59;101712.72;;;6.57;80.38
31096;BME280;17749;51.962;8.560;2023-04-03T10:19:34;101703.84;;;6.34;80.14
31096;BME280;17749;51.962;8.560;2023-04-03T10:22:12;101712.63;;;6.16;78.60
31096;BME280;17749;51.962;8.560;2023-04-03T10:24:51;101693.19;;;6.03;78.82
31096;BME280;17749;51.962;8.560;2023-04-03T10:27:38;101714.28;;;5.94;77.32
31096;BME280;17749;51.962;8.560;2023-04-03T10:33:00;101703.78;;;6.12;77.93
31096;BME280;17749;51.962;8.560;2023-04-03T10:41:27;101690.66;;;6.57;75.13
31096;BME280;17749;51.962;8.560;2023-04-03T10:47:20;101682.75;;;6.83;74.98
31096;BME280;17749;51.962;8.560;2023-04-03T10:55:46;101683.63;;;7.25;80.44
31096;BME280;17749;51.962;8.560;2023-04-03T11:01:05;101681.78;;;7.64;76.55
31096;BME280;17749;51.962;8.560;2023-04-03T11:03:36;101673.84;;;7.58;73.62
31096;BME280;17749;51.962;8.560;2023-04-03T11:06:10;101677.38;;;7.63;73.74
31096;BME280;17749;51.962;8.560;2023-04-03T11:08:57;101677.38;;;7.54;75.48
31096;BME280;17749;51.962;8.560;2023-04-03T11:11:38;101673.00;;;7.33;73.35
31096;BME280;17749;51.962;8.560;2023-04-03T11:14:26;101673.88;;;7.38;74.85
31096;BME280;17749;51.962;8.560;2023-04-03T11:17:21;101677.47;;;7.26;73.34
31096;BME280;17749;51.962;8.560;2023-04-03T11:19:58;101671.28;;;7.09;71.90
31096;BME280;17749;51.962;8.560;2023-04-03T11:22:32;101669.50;;;7.20;71.47
31096;BME280;17749;51.962;8.560;2023-04-03T11:25:15;101664.19;;;7.21;73.61
31096;BME280;17749;51.962;8.560;2023-04-03T11:28:56;101661.50;;;7.47;75.28
31096;BME280;17749;51.962;8.560;2023-04-03T11:36:26;101648.94;;;7.96;72.65
31096;BME280;17749;51.962;8.560;2023-04-03T11:41:47;101653.44;;;7.80;67.61
31096;BME280;17749;51.962;8.560;2023-04-03T11:44:33;101654.31;;;7.86;70.10
31096;BME280;17749;51.962;8.560;2023-04-03T11:47:01;101663.19;;;7.76;69.36
31096;BME280;17749;51.962;8.560;2023-04-03T11:49:59;101664.91;;;7.80;70.13
31096;BME280;17749;51.962;8.560;2023-04-03T12:05:55;101647.31;;;7.64;72.88
31096;BME280;17749;51.962;8.560;2023-04-03T12:08:46;101633.22;;;7.46;72.36
31096;BME280;17749;51.962;8.560;2023-04-03T12:11:22;101623.50;;;7.41;71.84
31096;BME280;17749;51.962;8.560;2023-04-03T12:27:00;101614.66;;;7.46;70.37
31096;BME280;17749;51.962;8.560;2023-04-03T12:32:34;101601.38;;;7.59;73.95
31096;BME280;17749;51.962;8.560;2023-04-03T12:51:39;101584.63;;;7.46;67.21
31096;BME280;17749;51.962;8.560;2023-04-03T12:54:19;101587.28;;;7.47;68.56
31096;BME280;17749;51.962;8.560;2023-04-03T12:56:48;101595.22;;;7.55;69.30
31096;BME280;17749;51.962;8.560;2023-04-03T12:59:25;101581.94;;;7.54;69.47
31096;BME280;17749;51.962;8.560;2023-04-03T13:01:57;101584.69;;;7.28;70.75
31096;BME280;17749;51.962;8.560;2023-04-03T13:04:26;101582.06;;;7.26;70.98
31096;BME280;17749;51.962;8.560;2023-04-03T13:06:54;101576.72;;;7.35;70.94
31096;BME280;17749;51.962;8.560;2023-04-03T13:09:29;101581.19;;;7.24;71.46
31096;BME280;17749;51.962;8.560;2023-04-03T13:12:10;101574.09;;;7.34;70.53
31096;BME280;17749;51.962;8.560;2023-04-03T13:14:38;101566.97;;;7.36;70.03
31096;BME280;17749;51.962;8.560;2023-04-03T13:17:12;101563.41;;;7.49;71.40
31096;BME280;17749;51.962;8.560;2023-04-03T13:19:41;101558.06;;;7.63;70.47
31096;BME280;17749;51.962;8.560;2023-04-03T13:22:29;101551.88;;;7.61;68.72
31096;BME280;17749;51.962;8.560;2023-04-03T13:25:03;101560.72;;;7.57;71.04
31096;BME280;17749;51.962;8.560;2023-04-03T13:27:33;101560.72;;;7.54;70.67
31096;BME280;17749;51.962;8.560;2023-04-03T13:30:02;101551.81;;;7.70;71.45
31096;BME280;17749;51.962;8.560;2023-04-03T13:32:31;101556.22;;;7.74;68.67
31096;BME280;17749;51.962;8.560;2023-04-03T13:34:59;101557.94;;;7.83;70.75
31096;BME280;17749;51.962;8.560;2023-04-03T13:37:56;101550.84;;;7.89;70.09
31096;BME280;17749;51.962;8.560;2023-04-03T13:40:24;101541.91;;;8.03;71.07
31096;BME280;17749;51.962;8.560;2023-04-03T13:43:02;101546.38;;;7.98;70.35
31096;BME280;17749;51.962;8.560;2023-04-03T13:45:32;101553.53;;;7.83;69.88
31096;BME280;17749;51.962;8.560;2023-04-03T13:48:10;101538.50;;;7.82;69.07
31096;BME280;17749;51.962;8.560;2023-04-03T13:50:55;101540.25;;;7.86;70.66
31096;BME280;17749;51.962;8.560;2023-04-03T13:53:24;101536.66;;;7.95;71.32
31096;BME280;17749;51.962;8.560;2023-04-03T13:58:32;101534.78;;;8.06;68.12
31096;BME280;17749;51.962;8.560;2023-04-03T14:01:19;101525.09;;;8.07;66.96
31096;BME280;17749;51.962;8.560;2023-04-03T14:03:53;101523.31;;;8.06;68.92
31096;BME280;17749;51.962;8.560;2023-04-03T14:06:21;101520.75;;;7.92;67.61
31096;BME280;17749;51.962;8.560;2023-04-03T14:08:48;101523.41;;;7.90;67.50
31096;BME280;17749;51.962;8.560;2023-04-03T14:11:29;101523.47;;;7.84;68.25
31096;BME280;17749;51.962;8.560;2023-04-03T14:14:11;101518.19;;;7.78;67.89
31096;BME280;17749;51.962;8.560;2023-04-03T14:16:54;101518.28;;;7.63;69.03
31096;BME280;17749;51.962;8.560;2023-04-03T14:21:58;101516.50;;;7.62;72.14
31096;BME280;17749;51.962;8.560;2023-04-03T14:24:30;101515.59;;;7.64;71.85
31096;BME280;17749;51.962;8.560;2023-04-03T14:26:57;101502.44;;;7.52;68.02
31096;BME280;17749;51.962;8.560;2023-04-03T14:29:24;101504.25;;;7.42;67.48
31096;BME280;17749;51.962;8.560;2023-04-03T14:31:51;101505.97;;;7.46;68.11
31096;BME280;17749;51.962;8.560;2023-04-03T14:34:33;101500.69;;;7.45;66.61
31096;BME280;17749;51.962;8.560;2023-04-03T14:37:00;101498.97;;;7.33;67.75
31096;BME280;17749;51.962;8.560;2023-04-03T14:39:27;101490.09;;;7.43;68.83
31096;BME280;17749;51.962;8.560;2023-04-03T14:41:54;101490.06;;;7.53;67.98
31096;BME280;17749;51.962;8.560;2023-04-03T14:44:21;101493.59;;;7.53;68.09
31096;BME280;17749;51.962;8.560;2023-04-03T14:46:50;101478.63;;;7.38;66.89
31096;BME280;17749;51.962;8.560;2023-04-03T14:49:27;101483.09;;;7.27;67.24
31096;BME280;17749;51.962;8.560;2023-04-03T14:51:57;101479.59;;;7.22;67.57
31096;BME280;17749;51.962;8.560;2023-04-03T14:54:24;101480.53;;;7.13;66.36
31096;BME280;17749;51.962;8.560;2023-04-03T14:56:56;101475.22;;;7.13;68.65
31096;BME280;17749;51.962;8.560;2023-04-03T14:59:31;101466.38;;;7.17;67.90
31096;BME280;17749;51.962;8.560;2023-04-03T15:01:58;101475.19;;;7.15;69.30
31096;BME280;17749;51.962;8.560;2023-04-03T15:04:26;101469.91;;;7.12;66.46
31096;BME280;17749;51.962;8.560;2023-04-03T15:06:54;101475.25;;;6.99;66.65
31096;BME280;17749;51.962;8.560;2023-04-03T15:09:25;101477.06;;;6.93;66.94
31096;BME280;17749;51.962;8.560;2023-04-03T15:11:53;101474.41;;;6.91;66.20
31096;BME280;17749;51.962;8.560;2023-04-03T15:14:22;101471.78;;;6.94;66.47
31096;BME280;17749;51.962;8.560;2023-04-03T15:17:04;101468.25;;;6.92;65.79
31096;BME280;17749;51.962;8.560;2023-04-03T15:19:41;101469.09;;;6.97;67.73
31096;BME280;17749;51.962;8.560;2023-04-03T15:22:16;101464.66;;;7.01;66.49
31096;BME280;17749;51.962;8.560;2023-04-03T15:24:44;101467.31;;;7.02;68.05
31096;BME280;17749;51.962;8.560;2023-04-03T15:27:12;101481.47;;;7.00;66.55
31096;BME280;17749;51.962;8.560;2023-04-03T15:29:41;101476.19;;;6.91;65.55
31096;BME280;17749;51.962;8.560;2023-04-03T15:32:09;101478.00;;;6.73;66.83
31096;BME280;17749;51.962;8.560;2023-04-03T15:34:36;101478.03;;;6.66;67.74
31096;BME280;17749;51.962;8.560;2023-04-03T15:37:03;101473.59;;;6.66;67.37
31096;BME280;17749;51.962;8.560;2023-04-03T15:39:30;101472.72;;;6.69;66.57
31096;BME280;17749;51.962;8.560;2023-04-03T15:41:58;101469.16;;;6.77;67.85
31096;BME280;17749;51.962;8.560;2023-04-03T15:44:36;101477.13;;;6.76;66.45
31096;BME280;17749;51.962;8.560;2023-04-03T15:47:03;101466.50;;;6.77;66.11
31096;BME280;17749;51.962;8.560;2023-04-03T15:49:32;101469.16;;;6.79;67.19
31096;BME280;17749;51.962;8.560;2023-04-03T15:51:59;101468.31;;;6.74;66.98
31096;BME280;17749;51.962;8.560;2023-04-03T15:54:27;101463.88;;;6.76;68.24
31096;BME280;17749;51.962;8.560;2023-04-03T15:56:56;101463.00;;;6.77;68.72
31096;BME280;17749;51.962;8.560;2023-04-03T15:59:23;101449.75;;;6.74;66.81
31096;BME280;17749;51.962;8.560;2023-04-03T16:01:53;101458.56;;;6.73;68.29
31096;BME280;17749;51.962;8.560;2023-04-03T16:04:20;101455.06;;;6.71;67.64
31096;BME280;17749;51.962;8.560;2023-04-03T16:06:48;101458.56;;;6.73;68.25
31096;BME280;17749;51.962;8.560;2023-04-03T16:09:15;101455.09;;;6.62;65.79
31096;BME280;17749;51.962;8.560;2023-04-03T16:11:42;101453.31;;;6.57;66.49
31096;BME280;17749;51.962;8.560;2023-04-03T16:14:10;101454.22;;;6.61;68.27
31096;BME280;17749;51.962;8.560;2023-04-03T16:16:37;101455.94;;;6.65;67.81
31096;BME280;17749;51.962;8.560;2023-04-03T16:19:05;101451.56;;;6.66;68.04
31096;BME280;17749;51.962;8.560;2023-04-03T16:21:33;101449.78;;;6.65;68.57
31096;BME280;17749;51.962;8.560;2023-04-03T16:24:02;101456.84;;;6.69;69.21
31096;BME280;17749;51.962;8.560;2023-04-03T16:26:29;101460.38;;;6.71;67.66
31096;BME280;17749;51.962;8.560;2023-04-03T16:28:56;101458.63;;;6.61;66.98
31096;BME280;17749;51.962;8.560;2023-04-03T16:31:25;101460.38;;;6.58;67.33
31096;BME280;17749;51.962;8.560;2023-04-03T16:33:52;101464.81;;;6.55;67.63
31096;BME280;17749;51.962;8.560;2023-04-03T16:36:19;101466.59;;;6.50;67.07
31096;BME280;17749;51.962;8.560;2023-04-03T16:38:46;101462.16;;;6.44;66.56
31096;BME280;17749;51.962;8.560;2023-04-03T16:41:13;101459.53;;;6.38;67.33
31096;BME280;17749;51.962;8.560;2023-04-03T16:43:40;101458.66;;;6.30;66.61
31096;BME280;17749;51.962;8.560;2023-04-03T16:46:08;101454.25;;;6.27;67.41
31096;BME280;17749;51.962;8.560;2023-04-03T16:48:35;101452.47;;;6.23;67.59
31096;BME280;17749;51.962;8.560;2023-04-03T16:51:02;101452.50;;;6.25;69.58
31096;BME280;17749;51.962;8.560;2023-04-03T16:53:29;101450.72;;;6.22;68.25
31096;BME280;17749;51.962;8.560;2023-04-03T16:55:57;101460.41;;;6.15;69.92
31096;BME280;17749;51.962;8.560;2023-04-03T16:58:24;101460.41;;;6.15;70.11
31096;BME280;17749;51.962;8.560;2023-04-03T17:00:51;101456.03;;;6.11;71.32
31096;BME280;17749;51.962;8.560;2023-04-03T17:03:20;101454.28;;;6.06;69.62
31096;BME280;17749;51.962;8.560;2023-04-03T17:05:49;101450.75;;;6.04;70.23
31096;BME280;17749;51.962;8.560;2023-04-03T17:08:17;101447.19;;;6.02;69.54
31096;BME280;17749;51.962;8.560;2023-04-03T17:10:46;101447.22;;;5.96;69.34
31096;BME280;17749;51.962;8.560;2023-04-03T17:13:18;101448.06;;;5.93;69.92
31096;BME280;17749;51.962;8.560;2023-04-03T17:15:45;101444.53;;;5.88;71.68
31096;BME280;17749;51.962;8.560;2023-04-03T17:18:12;101448.06;;;5.87;71.81
31096;BME280;17749;51.962;8.560;2023-04-03T17:20:39;101445.41;;;5.84;69.52
31096;BME280;17749;51.962;8.560;2023-04-03T17:23:07;101442.78;;;5.79;70.03
31096;BME280;17749;51.962;8.560;2023-04-03T17:25:34;101449.78;;;5.79;69.47
31096;BME280;17749;51.962;8.560;2023-04-03T17:28:01;101448.06;;;5.75;71.75
31096;BME280;17749;51.962;8.560;2023-04-03T17:30:28;101445.41;;;5.78;70.80
31096;BME280;17749;51.962;8.560;2023-04-03T17:32:55;101448.06;;;5.71;71.22
31096;BME280;17749;51.962;8.560;2023-04-03T17:35:22;101449.81;;;5.69;72.62
31096;BME280;17749;51.962;8.560;2023-04-03T17:37:49;101452.44;;;5.66;73.14
31096;BME280;17749;51.962;8.560;2023-04-03T17:40:16;101457.72;;;5.65;73.48
31096;BME280;17749;51.962;8.560;2023-04-03T17:42:44;101451.56;;;5.61;73.77
31096;BME280;17749;51.962;8.560;2023-04-03T17:45:11;101459.47;;;5.61;73.80
31096;BME280;17749;51.962;8.560;2023-04-03T17:47:38;101450.66;;;5.55;72.70
31096;BME280;17749;51.962;8.560;2023-04-03T17:50:05;101460.34;;;5.48;73.45
31096;BME280;17749;51.962;8.560;2023-04-03T17:52:32;101457.66;;;5.42;72.34
31096;BME280;17749;51.962;8.560;2023-04-03T17:54:59;101462.06;;;5.38;75.21
31096;BME280;17749;51.962;8.560;2023-04-03T17:57:26;101457.66;;;5.33;77.30
31096;BME280;17749;51.962;8.560;2023-04-03T17:59:53;101461.16;;;5.32;74.20
31096;BME280;17749;51.962;8.560;2023-04-03T18:02:20;101470.81;;;5.26;74.96
31096;BME280;17749;51.962;8.560;2023-04-03T18:04:50;101471.69;;;5.21;76.02
31096;BME280;17749;51.962;8.560;2023-04-03T18:07:17;101473.41;;;5.16;75.37
31096;BME280;17749;51.962;8.560;2023-04-03T18:09:46;101463.72;;;5.09;74.69
31096;BME280;17749;51.962;8.560;2023-04-03T18:12:14;101472.47;;;5.00;75.10
31096;BME280;17749;51.962;8.560;2023-04-03T18:14:41;101469.78;;;4.92;77.61
31096;BME280;17749;51.962;8.560;2023-04-03T18:17:09;101475.94;;;4.87;79.72
31096;BME280;17749;51.962;8.560;2023-04-03T18:19:36;101472.38;;;4.81;79.35
31096;BME280;17749;51.962;8.560;2023-04-03T18:22:08;101463.56;;;4.72;80.31
31096;BME280;17749;51.962;8.560;2023-04-03T18:24:35;101463.53;;;4.67;80.28
31096;BME280;17749;51.962;8.560;2023-04-03T18:27:09;101474.00;;;4.61;80.97
31096;BME280;17749;51.962;8.560;2023-04-03T18:29:39;101471.38;;;4.53;81.06
31096;BME280;17749;51.962;8.560;2023-04-03T18:32:09;101484.50;;;4.49;84.49
31096;BME280;17749;51.962;8.560;2023-04-03T18:34:37;101480.97;;;4.44;89.05
31096;BME280;17749;51.962;8.560;2023-04-03T18:37:04;101473.88;;;4.36;93.57
31096;BME280;17749;51.962;8.560;2023-04-03T18:39:31;101484.38;;;4.30;95.01
31096;BME280;17749;51.962;8.560;2023-04-03T18:42:05;101479.91;;;4.23;98.00
31096;BME280;17749;51.962;8.560;2023-04-03T18:44:33;101479.00;;;4.18;100.00
31096;BME280;17749;51.962;8.560;2023-04-03T18:47:01;101480.72;;;4.13;100.00
31096;BME280;17749;51.962;8.560;2023-04-03T18:49:29;101478.88;;;4.06;100.00
31096;BME280;17749;51.962;8.560;2023-04-03T18:51:58;101482.38;;;4.02;100.00
31096;BME280;17749;51.962;8.560;2023-04-03T18:54:25;101480.56;;;3.94;100.00
31096;BME280;17749;51.962;8.560;2023-04-03T18:56:52;101492.81;;;3.89;100.00
31096;BME280;17749;51.962;8.560;2023-04-03T18:59:18;101485.69;;;3.82;100.00
31096;BME280;17749;51.962;8.560;2023-04-03T19:01:45;101492.66;;;3.74;100.00
31096;BME280;17749;51.962;8.560;2023-04-03T19:04:13;101485.59;;;3.67;100.00
31096;BME280;17749;51.962;8.560;2023-04-03T19:06:40;101488.09;;;3.58;100.00
31096;BME280;17749;51.962;8.560;2023-04-03T19:09:07;101496.78;;;3.50;100.00
31096;BME280;17749;51.962;8.560;2023-04-03T19:11:34;101495.00;;;3.43;100.00
31096;BME280;17749;51.962;8.560;2023-04-03T19:14:02;101488.78;;;3.38;100.00
31096;BME280;17749;51.962;8.560;2023-04-03T19:16:43;101501.00;;;3.33;100.00
31096;BME280;17749;51.962;8.560;2023-04-03T19:19:10;101499.19;;;3.29;100.00
31096;BME280;17749;51.962;8.560;2023-04-03T19:21:37;101486.84;;;3.23;100.00
31096;BME280;17749;51.962;8.560;2023-04-03T19:24:08;101487.63;;;3.16;100.00
31096;BME280;17749;51.962;8.560;2023-04-03T19:26:36;101489.34;;;3.13;100.00
31096;BME280;17749;51.962;8.560;2023-04-03T19:29:03;101478.75;;;3.08;100.00
31096;BME280;17749;51.962;8.560;2023-04-03T19:31:30;101488.38;;;3.04;100.00
31096;BME280;17749;51.962;8.560;2023-04-03T19:34:00;101486.53;;;3.00;100.00
31096;BME280;17749;51.962;8.560;2023-04-03T19:36:28;101483.84;;;2.94;100.00
31096;BME280;17749;51.962;8.560;2023-04-03T19:38:56;101485.50;;;2.88;100.00
31096;BME280;17749;51.962;8.560;2023-04-03T19:41:24;101483.72;;;2.85;100.00
31096;BME280;17749;51.962;8.560;2023-04-03T19:43:54;101482.81;;;2.83;100.00
31096;BME280;17749;51.962;8.560;2023-04-03T19:46:27;101484.59;;;2.84;100.00
31096;BME280;17749;51.962;8.560;2023-04-03T19:48:55;101487.13;;;2.78;100.00
31096;BME280;17749;51.962;8.560;2023-04-03T19:51:22;101480.94;;;2.73;100.00
31096;BME280;17749;51.962;8.560;2023-04-03T19:53:51;101482.66;;;2.71;100.00
31096;BME280;17749;51.962;8.560;2023-04-03T19:56:18;101486.09;;;2.67;100.00
31096;BME280;17749;51.962;8.560;2023-04-03T19:58:47;101487.81;;;2.64;100.00
31096;BME280;17749;51.962;8.560;2023-04-03T20:01:23;101486.00;;;2.60;100.00
31096;BME280;17749;51.962;8.560;2023-04-03T20:03:52;101496.44;;;2.56;100.00